Time;durP1;ratioP1;P1;durP2;ratioP2;P2;SDS_P1;SDS_P2;PMS_P1;PMS_P2;Temp;Humidity;BMP_temperature;BMP_pressure;BME280_temperature;BME280_humidity;BME280_pressure;Samples;Min_cycle;Max_cycle;Signal;HPM_P1;HPM_P2
2021/12/19 00:01:19;;;;;;;;;;;14.10;63.40;;;;;;6220962;23;19951;-93
2021/12/19 00:09:09;;;;;;;;;;;14.10;63.50;;;;;;6218700;23;19924;-90
2021/12/19 00:11:35;;;;;;;;;;;14.00;63.60;;;;;;6191773;23;19912;-91
2021/12/19 00:14:01;;;;;;;;;;;14.00;63.50;;;;;;6217740;23;19931;-90
2021/12/19 00:16:27;;;;;;;;;;;13.90;63.30;;;;;;6191841;23;19911;-92
2021/12/19 00:18:53;;;;;;;;;;;14.00;63.30;;;;;;6220551;23;19978;-93
2021/12/19 00:21:19;;;;;;;;;;;14.00;63.30;;;;;;6167060;23;19908;-93
2021/12/19 00:23:45;;;;;;;;;;;13.90;63.40;;;;;;6219697;23;19915;-92
2021/12/19 00:26:11;;;;;;;;;;;13.90;63.20;;;;;;6192734;23;20309;-90
2021/12/19 00:28:37;;;;;;;;;;;13.90;63.00;;;;;;6192083;23;19943;-91
2021/12/19 00:31:03;;;;;;;;;;;13.80;63.10;;;;;;6219076;23;19916;-90
2021/12/19 00:33:29;;;;;;;;;;;13.80;63.20;;;;;;6191818;23;19960;-91
2021/12/19 00:35:55;;;;;;;;;;;13.80;63.20;;;;;;6191687;23;19908;-90
2021/12/19 00:38:20;;;;;;;;;;;13.80;63.20;;;;;;6218301;23;19908;-91
2021/12/19 00:40:46;;;;;;;;;;;13.80;62.90;;;;;;6219098;23;19935;-92
2021/12/19 00:43:22;;;;;;;;;;;13.80;62.90;;;;;;6218191;23;20282;-91
2021/12/19 00:45:49;;;;;;;;;;;13.70;62.80;;;;;;6191898;23;20308;-91
2021/12/19 00:48:16;;;;;;;;;;;13.70;62.60;;;;;;6191665;23;19912;-91
2021/12/19 00:50:41;;;;;;;;;;;13.60;62.60;;;;;;6218107;23;20409;-90
2021/12/19 00:53:07;;;;;;;;;;;13.60;62.90;;;;;;6191835;23;19963;-91
2021/12/19 00:55:32;;;;;;;;;;;13.60;62.70;;;;;;6193981;23;19912;-91
2021/12/19 00:57:58;;;;;;;;;;;13.50;62.90;;;;;;6219527;23;19915;-91
2021/12/19 01:00:27;;;;;;;;;;;13.50;63.00;;;;;;6218919;23;19923;-91
2021/12/19 01:02:54;;;;;;;;;;;13.50;62.90;;;;;;6217167;23;19908;-91
2021/12/19 01:05:20;;;;;;;;;;;13.50;63.00;;;;;;6192655;23;20244;-91
2021/12/19 01:07:46;;;;;;;;;;;13.50;62.80;;;;;;6192809;23;19908;-91
2021/12/19 01:10:11;;;;;;;;;;;13.50;63.00;;;;;;6191711;23;19991;-91
2021/12/19 01:12:38;;;;;;;;;;;13.50;63.00;;;;;;6192281;23;19916;-91
2021/12/19 01:15:09;;;;;;;;;;;13.50;62.90;;;;;;6191305;23;19942;-91
2021/12/19 01:17:34;;;;;;;;;;;13.40;62.90;;;;;;6191805;23;19919;-91
2021/12/19 01:19:59;;;;;;;;;;;13.40;62.70;;;;;;6191662;23;19912;-91
2021/12/19 01:22:25;;;;;;;;;;;13.40;62.90;;;;;;6217638;23;19915;-91
2021/12/19 01:24:50;;;;;;;;;;;13.30;63.20;;;;;;6191457;23;19916;-90
2021/12/19 01:27:16;;;;;;;;;;;13.40;63.30;;;;;;6191106;23;20238;-90
2021/12/19 01:29:41;;;;;;;;;;;13.30;63.40;;;;;;6189826;23;19926;-90
2021/12/19 01:32:07;;;;;;;;;;;13.30;63.30;;;;;;6191078;23;19931;-92
2021/12/19 01:34:32;;;;;;;;;;;13.30;63.40;;;;;;6217525;23;19991;-91
2021/12/19 01:36:58;;;;;;;;;;;13.30;63.40;;;;;;6190942;23;19907;-90
2021/12/19 01:39:23;;;;;;;;;;;13.30;63.40;;;;;;6191176;23;19924;-91
2021/12/19 01:41:53;;;;;;;;;;;13.30;63.20;;;;;;6218033;23;19908;-92
2021/12/19 01:44:19;;;;;;;;;;;13.20;63.30;;;;;;6190657;23;19912;-91
2021/12/19 01:46:46;;;;;;;;;;;13.20;63.40;;;;;;6217654;23;19958;-91
2021/12/19 01:49:16;;;;;;;;;;;13.20;63.40;;;;;;6217368;23;20317;-91
2021/12/19 01:51:42;;;;;;;;;;;13.20;63.40;;;;;;6191036;23;19974;-92
2021/12/19 01:54:07;;;;;;;;;;;13.10;63.50;;;;;;6191313;23;19916;-91
2021/12/19 01:56:33;;;;;;;;;;;13.20;63.50;;;;;;6216999;23;19908;-92
2021/12/19 01:58:58;;;;;;;;;;;13.20;63.40;;;;;;6191071;23;19947;-92
2021/12/19 02:01:24;;;;;;;;;;;13.20;63.40;;;;;;6190686;23;19950;-91
2021/12/19 02:03:50;;;;;;;;;;;13.10;63.40;;;;;;6189474;23;19907;-91
2021/12/19 02:06:16;;;;;;;;;;;13.10;63.40;;;;;;6216900;23;19922;-91
2021/12/19 02:08:41;;;;;;;;;;;13.10;63.50;;;;;;6217630;23;19912;-91
2021/12/19 02:11:07;;;;;;;;;;;13.10;63.50;;;;;;6217430;23;20372;-90
2021/12/19 02:13:32;;;;;;;;;;;13.10;63.50;;;;;;6190029;23;19915;-90
2021/12/19 02:15:58;;;;;;;;;;;13.20;63.50;;;;;;6214913;23;20411;-91
2021/12/19 02:18:24;;;;;;;;;;;13.20;63.50;;;;;;6190168;23;19919;-90
2021/12/19 02:20:52;;;;;;;;;;;13.20;63.50;;;;;;6215377;23;19990;-90
2021/12/19 02:23:18;;;;;;;;;;;13.20;63.40;;;;;;6190259;23;19998;-90
2021/12/19 02:25:44;;;;;;;;;;;13.20;63.40;;;;;;6217002;23;19974;-91
2021/12/19 02:28:09;;;;;;;;;;;13.30;63.40;;;;;;6214389;23;19908;-89
2021/12/19 02:30:35;;;;;;;;;;;13.30;63.30;;;;;;6190123;23;19908;-91
2021/12/19 02:33:01;;;;;;;;;;;13.30;63.30;;;;;;6215447;23;19951;-91
2021/12/19 02:35:31;;;;;;;;;;;13.30;63.20;;;;;;6190300;23;19912;-90
2021/12/19 02:40:40;;;;;;;;;;;13.30;63.30;;;;;;6217412;23;19908;-91
2021/12/19 02:48:34;;;;;;;;;;;13.30;63.30;;;;;;6206445;23;19919;-91
2021/12/19 02:51:01;;;;;;;;;;;13.30;63.30;;;;;;6215822;23;19908;-90
2021/12/19 02:53:32;;;;;;;;;;;13.30;63.20;;;;;;6190227;23;20017;-91
2021/12/19 02:55:58;;;;;;;;;;;13.30;63.20;;;;;;6189554;23;19907;-92
2021/12/19 02:58:23;;;;;;;;;;;13.30;63.20;;;;;;6216536;23;19950;-91
2021/12/19 03:00:49;;;;;;;;;;;13.30;63.20;;;;;;6216063;23;20302;-91
2021/12/19 03:03:14;;;;;;;;;;;13.30;63.10;;;;;;6189298;23;19951;-93
2021/12/19 03:05:40;;;;;;;;;;;13.30;63.00;;;;;;6216978;23;19936;-91
2021/12/19 03:08:08;;;;;;;;;;;13.20;63.10;;;;;;6189793;23;19922;-90
2021/12/19 03:18:31;;;;;;;;;;;13.20;63.10;;;;;;6207721;23;19974;-91
2021/12/19 03:20:57;;;;;;;;;;;13.20;63.20;;;;;;6218285;23;19939;-91
2021/12/19 03:23:22;;;;;;;;;;;13.20;63.10;;;;;;6217029;23;20268;-92
2021/12/19 03:25:48;;;;;;;;;;;13.20;63.00;;;;;;6218560;23;19904;-90
2021/12/19 03:28:14;;;;;;;;;;;13.20;63.00;;;;;;6218867;23;19915;-91
2021/12/19 03:30:41;;;;;;;;;;;13.20;63.10;;;;;;6191739;23;19911;-91
2021/12/19 03:33:06;;;;;;;;;;;13.20;63.20;;;;;;6218151;23;19919;-92
2021/12/19 03:35:32;;;;;;;;;;;13.20;63.20;;;;;;6217802;23;19908;-91
2021/12/19 03:37:59;;;;;;;;;;;13.20;63.20;;;;;;6216972;23;19919;-91
2021/12/19 03:40:35;;;;;;;;;;;13.20;63.20;;;;;;6190646;23;19911;-91
2021/12/19 03:43:03;;;;;;;;;;;13.20;63.10;;;;;;6218014;23;19999;-91
2021/12/19 03:45:29;;;;;;;;;;;13.10;63.10;;;;;;6215567;23;19908;-91
2021/12/19 03:47:55;;;;;;;;;;;13.20;63.10;;;;;;6190358;23;20004;-91
2021/12/19 03:50:22;;;;;;;;;;;13.20;63.00;;;;;;6215458;23;19967;-90
2021/12/19 03:52:48;;;;;;;;;;;13.20;63.10;;;;;;6190746;23;19943;-92
2021/12/19 03:55:14;;;;;;;;;;;13.20;63.20;;;;;;6190642;23;19944;-91
2021/12/19 03:57:40;;;;;;;;;;;13.20;63.10;;;;;;6217360;23;19908;-91
2021/12/19 04:00:08;;;;;;;;;;;13.20;63.10;;;;;;6217464;23;19919;-91
2021/12/19 04:02:34;;;;;;;;;;;13.20;63.10;;;;;;6217675;23;19951;-90
2021/12/19 04:04:59;;;;;;;;;;;13.20;63.20;;;;;;6215658;23;19910;-89
2021/12/19 04:07:26;;;;;;;;;;;13.20;63.20;;;;;;6217687;23;19912;-91
2021/12/19 04:09:51;;;;;;;;;;;13.20;63.10;;;;;;6216904;23;19912;-90
2021/12/19 04:12:17;;;;;;;;;;;13.20;63.10;;;;;;6190917;23;19923;-90
2021/12/19 04:14:43;;;;;;;;;;;13.20;63.00;;;;;;6191845;23;19915;-91
2021/12/19 04:17:08;;;;;;;;;;;13.20;63.10;;;;;;6216307;23;19944;-90
2021/12/19 04:19:34;;;;;;;;;;;13.20;63.10;;;;;;6191725;23;19919;-90
2021/12/19 04:21:59;;;;;;;;;;;13.20;63.10;;;;;;6217990;23;19962;-91
2021/12/19 04:24:28;;;;;;;;;;;13.20;63.10;;;;;;6217590;23;19908;-91
2021/12/19 04:26:54;;;;;;;;;;;13.20;63.00;;;;;;6217379;23;20327;-91
2021/12/19 04:29:20;;;;;;;;;;;13.20;63.10;;;;;;6216747;23;19896;-91
2021/12/19 04:31:46;;;;;;;;;;;13.20;63.10;;;;;;6217577;23;19963;-91
2021/12/19 04:34:14;;;;;;;;;;;13.30;63.20;;;;;;6217327;23;19914;-90
2021/12/19 04:36:43;;;;;;;;;;;13.20;63.10;;;;;;6217579;23;19919;-90
2021/12/19 04:58:47;;;;;;;;;;;13.30;63.20;;;;;;6218294;23;19951;-91
2021/12/19 05:03:46;;;;;;;;;;;13.30;63.10;;;;;;6218455;23;19911;-90
2021/12/19 05:06:32;;;;;;;;;;;13.30;63.00;;;;;;6218109;23;20269;-91
2021/12/19 05:14:33;;;;;;;;;;;13.30;63.00;;;;;;6218452;23;19914;-91
2021/12/19 05:17:05;;;;;;;;;;;13.30;63.00;;;;;;6191761;23;19912;-91
2021/12/19 05:19:43;;;;;;;;;;;13.30;63.10;;;;;;6217414;23;19926;-90
2021/12/19 05:22:09;;;;;;;;;;;13.30;63.10;;;;;;6218939;23;20612;-91
2021/12/19 05:27:04;;;;;;;;;;;13.20;63.00;;;;;;6218355;23;19912;-91
2021/12/19 05:29:30;;;;;;;;;;;13.30;63.00;;;;;;6218494;23;20313;-91
2021/12/19 05:31:56;;;;;;;;;;;13.20;63.00;;;;;;6216535;23;19912;-91
2021/12/19 05:34:21;;;;;;;;;;;13.20;62.90;;;;;;6217078;23;19904;-91
2021/12/19 05:47:25;;;;;;;;;;;13.20;63.10;;;;;;6218317;23;19912;-90
2021/12/19 05:49:51;;;;;;;;;;;13.20;63.00;;;;;;6191129;23;19908;-90
2021/12/19 05:52:16;;;;;;;;;;;13.20;63.00;;;;;;6191337;23;20043;-90
2021/12/19 05:54:42;;;;;;;;;;;13.20;63.00;;;;;;6191155;23;20169;-89
2021/12/19 05:57:09;;;;;;;;;;;13.20;63.00;;;;;;6215308;23;19904;-91
2021/12/19 05:59:35;;;;;;;;;;;13.20;63.00;;;;;;6217128;23;20252;-91
2021/12/19 06:02:00;;;;;;;;;;;13.20;63.00;;;;;;6189326;23;19912;-91
2021/12/19 06:04:26;;;;;;;;;;;13.20;63.00;;;;;;6216915;23;19909;-91
2021/12/19 06:06:51;;;;;;;;;;;13.20;63.10;;;;;;6191280;23;19907;-91
2021/12/19 06:09:17;;;;;;;;;;;13.20;63.00;;;;;;6218170;23;19934;-91
2021/12/19 06:11:43;;;;;;;;;;;13.20;63.00;;;;;;6191258;23;19987;-91
2021/12/19 06:14:08;;;;;;;;;;;13.20;63.10;;;;;;6217851;23;19915;-91
2021/12/19 06:16:34;;;;;;;;;;;13.30;63.10;;;;;;6217027;23;20238;-90
2021/12/19 06:18:59;;;;;;;;;;;13.30;63.20;;;;;;6215853;23;19943;-91
2021/12/19 06:21:25;;;;;;;;;;;13.30;63.20;;;;;;6191783;23;19908;-90
2021/12/19 06:23:50;;;;;;;;;;;13.30;63.10;;;;;;6217694;23;19974;-91
2021/12/19 06:26:16;;;;;;;;;;;13.30;63.00;;;;;;6218018;23;19912;-90
2021/12/19 06:28:41;;;;;;;;;;;13.30;63.00;;;;;;6215457;23;19915;-91
2021/12/19 06:31:07;;;;;;;;;;;13.30;63.00;;;;;;6217159;23;19911;-91
2021/12/19 06:33:32;;;;;;;;;;;13.20;63.00;;;;;;6190680;23;19908;-90
2021/12/19 06:35:58;;;;;;;;;;;13.30;63.00;;;;;;6190150;23;19908;-91
2021/12/19 06:38:24;;;;;;;;;;;13.30;63.00;;;;;;6216390;23;19908;-90
2021/12/19 06:40:49;;;;;;;;;;;13.30;63.00;;;;;;6189252;23;20277;-91
2021/12/19 06:43:15;;;;;;;;;;;13.30;63.00;;;;;;6189941;23;19912;-90
2021/12/19 06:45:40;;;;;;;;;;;13.30;62.90;;;;;;6216450;23;19908;-90
2021/12/19 06:48:06;;;;;;;;;;;13.30;62.80;;;;;;6189689;23;19958;-91
2021/12/19 06:50:31;;;;;;;;;;;13.30;62.90;;;;;;6216986;23;19947;-90
2021/12/19 06:52:56;;;;;;;;;;;13.30;62.80;;;;;;6217200;23;19930;-91
2021/12/19 06:55:22;;;;;;;;;;;13.30;62.90;;;;;;6191274;23;19915;-89
2021/12/19 06:57:47;;;;;;;;;;;13.30;63.00;;;;;;6190995;23;20313;-90
2021/12/19 07:00:18;;;;;;;;;;;13.30;63.00;;;;;;6191429;23;19919;-90
2021/12/19 07:02:44;;;;;;;;;;;13.30;63.10;;;;;;6190013;23;19936;-91
2021/12/19 07:05:09;;;;;;;;;;;13.30;63.00;;;;;;6215264;23;19988;-91
2021/12/19 07:07:35;;;;;;;;;;;13.30;62.90;;;;;;6216804;23;19912;-91
2021/12/19 07:10:00;;;;;;;;;;;13.30;62.90;;;;;;6217339;23;19908;-91
2021/12/19 07:12:26;;;;;;;;;;;13.20;62.80;;;;;;6216833;23;20031;-90
2021/12/19 07:14:56;;;;;;;;;;;13.20;62.80;;;;;;6190381;23;20238;-90
2021/12/19 07:17:21;;;;;;;;;;;13.20;62.90;;;;;;6217097;23;20321;-91
2021/12/19 07:19:47;;;;;;;;;;;13.20;62.90;;;;;;6215579;23;19943;-91
2021/12/19 07:22:12;;;;;;;;;;;13.10;62.70;;;;;;6216512;23;19912;-91
2021/12/19 07:24:41;;;;;;;;;;;13.10;62.80;;;;;;6190151;23;20268;-92
2021/12/19 07:27:06;;;;;;;;;;;13.10;62.90;;;;;;6190549;23;19927;-92
2021/12/19 07:29:32;;;;;;;;;;;13.10;62.80;;;;;;6190831;23;20260;-91
2021/12/19 07:31:58;;;;;;;;;;;13.00;62.90;;;;;;6214340;23;19914;-91
2021/12/19 07:34:30;;;;;;;;;;;13.10;63.00;;;;;;6214682;23;19908;-90
2021/12/19 07:36:55;;;;;;;;;;;13.10;63.00;;;;;;6215233;23;19932;-90
2021/12/19 07:39:37;;;;;;;;;;;13.10;62.90;;;;;;6189878;23;19919;-91
2021/12/19 07:42:06;;;;;;;;;;;13.10;62.90;;;;;;6188142;23;22026;-91
2021/12/19 07:44:32;;;;;;;;;;;13.10;62.90;;;;;;6189865;23;19911;-91
2021/12/19 07:46:57;;;;;;;;;;;13.00;63.00;;;;;;6215514;23;19956;-91
2021/12/19 07:49:23;;;;;;;;;;;13.00;63.10;;;;;;6190942;23;19912;-90
2021/12/19 07:51:48;;;;;;;;;;;13.00;63.30;;;;;;6214923;23;19908;-91
2021/12/19 07:54:14;;;;;;;;;;;13.00;63.20;;;;;;6217370;23;19922;-90
2021/12/19 07:56:39;;;;;;;;;;;13.00;63.30;;;;;;6218716;23;19912;-91
2021/12/19 07:59:05;;;;;;;;;;;13.00;63.20;;;;;;6194584;23;19915;-90
2021/12/19 08:01:31;;;;;;;;;;;13.00;63.20;;;;;;6218894;23;19908;-91
2021/12/19 08:03:56;;;;;;;;;;;13.00;63.30;;;;;;6221010;23;19943;-91
2021/12/19 08:06:22;;;;;;;;;;;12.90;63.30;;;;;;6217641;23;19908;-91
2021/12/19 08:08:51;;;;;;;;;;;12.90;63.40;;;;;;6218343;23;20344;-91
2021/12/19 08:14:02;;;;;;;;;;;12.90;63.70;;;;;;6198066;23;19962;-92
2021/12/19 08:16:28;;;;;;;;;;;13.00;63.80;;;;;;6193389;23;19912;-92
2021/12/19 08:18:53;;;;;;;;;;;13.00;63.90;;;;;;6219812;23;19923;-91
2021/12/19 08:21:19;;;;;;;;;;;13.00;63.80;;;;;;6193386;23;19919;-92
2021/12/19 08:23:45;;;;;;;;;;;13.10;63.70;;;;;;6194233;23;19923;-91
2021/12/19 08:26:11;;;;;;;;;;;13.10;63.70;;;;;;6193869;23;19987;-91
2021/12/19 08:28:37;;;;;;;;;;;13.00;63.60;;;;;;6219054;23;19920;-90
2021/12/19 08:33:58;;;;;;;;;;;13.00;63.70;;;;;;6219432;23;20284;-92
2021/12/19 08:36:24;;;;;;;;;;;13.10;63.80;;;;;;6193358;23;19904;-92
2021/12/19 08:38:49;;;;;;;;;;;13.10;63.80;;;;;;6218482;23;19936;-91
2021/12/19 08:41:15;;;;;;;;;;;13.10;63.80;;;;;;6219031;23;20364;-92
2021/12/19 08:43:40;;;;;;;;;;;13.20;63.80;;;;;;6193331;23;19927;-92
2021/12/19 08:46:09;;;;;;;;;;;13.20;63.70;;;;;;6218340;23;20180;-92
2021/12/19 08:48:34;;;;;;;;;;;13.20;63.80;;;;;;6194027;23;20421;-92
2021/12/19 08:51:00;;;;;;;;;;;13.20;63.80;;;;;;6219652;23;19903;-89
2021/12/19 08:53:25;;;;;;;;;;;13.20;63.90;;;;;;6192648;23;19916;-90
2021/12/19 08:55:51;;;;;;;;;;;13.20;63.80;;;;;;6192041;23;19928;-90
2021/12/19 08:58:16;;;;;;;;;;;13.30;63.80;;;;;;6219819;23;20309;-91
2021/12/19 09:00:42;;;;;;;;;;;13.30;63.90;;;;;;6216906;23;19952;-91
2021/12/19 09:03:08;;;;;;;;;;;13.30;63.80;;;;;;6192478;23;19908;-91
2021/12/19 09:05:34;;;;;;;;;;;13.30;63.80;;;;;;6218583;23;19904;-90
2021/12/19 09:08:00;;;;;;;;;;;13.30;63.80;;;;;;6218999;23;19908;-91
2021/12/19 09:10:26;;;;;;;;;;;13.30;63.50;;;;;;6192990;23;19951;-91
2021/12/19 09:12:52;;;;;;;;;;;13.30;63.60;;;;;;6192368;23;19982;-91
2021/12/19 09:15:17;;;;;;;;;;;13.30;63.70;;;;;;6217585;23;19923;-90
2021/12/19 09:17:43;;;;;;;;;;;13.30;63.70;;;;;;6219626;23;20454;-91
2021/12/19 09:20:09;;;;;;;;;;;13.30;63.70;;;;;;6194694;23;20405;-91
2021/12/19 09:22:35;;;;;;;;;;;13.30;63.70;;;;;;6196454;23;19908;-91
2021/12/19 09:25:01;;;;;;;;;;;13.40;63.70;;;;;;6220520;23;19912;-91
2021/12/19 09:27:26;;;;;;;;;;;13.40;63.70;;;;;;6221305;23;19908;-91
2021/12/19 09:29:52;;;;;;;;;;;13.40;63.60;;;;;;6220201;23;19911;-91
2021/12/19 09:32:18;;;;;;;;;;;13.40;63.60;;;;;;6220521;23;19911;-90
2021/12/19 09:34:43;;;;;;;;;;;13.40;63.60;;;;;;6193239;23;19919;-92
2021/12/19 09:37:09;;;;;;;;;;;13.40;63.60;;;;;;6192808;23;20614;-93
2021/12/19 09:39:36;;;;;;;;;;;13.40;63.70;;;;;;6192879;23;19912;-92
2021/12/19 09:42:09;;;;;;;;;;;13.40;63.60;;;;;;6192150;23;19941;-91
2021/12/19 09:44:35;;;;;;;;;;;13.40;63.60;;;;;;6191959;23;19920;-90
2021/12/19 09:47:01;;;;;;;;;;;13.50;63.70;;;;;;6192540;23;19904;-91
2021/12/19 09:49:27;;;;;;;;;;;13.50;63.60;;;;;;6192483;23;19990;-91
2021/12/19 09:51:52;;;;;;;;;;;13.50;63.60;;;;;;6192806;23;19904;-91
2021/12/19 09:54:19;;;;;;;;;;;13.50;63.50;;;;;;6219618;23;20316;-91
2021/12/19 09:56:45;;;;;;;;;;;13.50;63.40;;;;;;6195540;23;20694;-91
2021/12/19 09:59:15;;;;;;;;;;;13.50;63.50;;;;;;6221021;23;19916;-91
2021/12/19 10:01:42;;;;;;;;;;;13.50;63.60;;;;;;6219469;23;19907;-91
2021/12/19 10:04:26;;;;;;;;;;;13.50;63.30;;;;;;6224442;23;20379;-91
2021/12/19 10:07:10;;;;;;;;;;;13.50;63.40;;;;;;6193603;23;19903;-90
2021/12/19 10:09:37;;;;;;;;;;;13.40;63.50;;;;;;6193589;23;19914;-91
2021/12/19 10:12:24;;;;;;;;;;;13.40;63.60;;;;;;6193179;23;19955;-91
2021/12/19 10:14:52;;;;;;;;;;;13.40;63.50;;;;;;6219837;23;19950;-91
2021/12/19 10:17:17;;;;;;;;;;;13.40;63.60;;;;;;6192659;23;19916;-91
2021/12/19 10:19:47;;;;;;;;;;;13.50;63.40;;;;;;6192182;23;19966;-91
2021/12/19 10:22:32;;;;;;;;;;;13.50;63.50;;;;;;6192251;23;20193;-91
2021/12/19 10:25:18;;;;;;;;;;;13.40;63.50;;;;;;6191743;23;20339;-90
2021/12/19 10:28:04;;;;;;;;;;;13.50;63.50;;;;;;6217114;23;19912;-91
2021/12/19 10:30:34;;;;;;;;;;;13.40;63.50;;;;;;6217476;23;20325;-91
2021/12/19 10:33:01;;;;;;;;;;;13.50;63.50;;;;;;6217909;23;19994;-92
2021/12/19 10:35:28;;;;;;;;;;;13.50;63.40;;;;;;6192801;23;19966;-90
2021/12/19 10:37:54;;;;;;;;;;;13.50;63.60;;;;;;6190264;23;20484;-91
2021/12/19 10:40:20;;;;;;;;;;;13.60;63.60;;;;;;6191390;23;19908;-90
2021/12/19 10:43:00;;;;;;;;;;;13.60;63.50;;;;;;6190766;23;19923;-91
2021/12/19 10:45:34;;;;;;;;;;;13.60;63.60;;;;;;6190720;23;19912;-91
2021/12/19 10:48:12;;;;;;;;;;;13.60;63.50;;;;;;6215207;23;19959;-91
2021/12/19 10:50:43;;;;;;;;;;;13.60;63.40;;;;;;6190002;23;20245;-91
2021/12/19 10:53:09;;;;;;;;;;;13.60;63.50;;;;;;6188544;23;19932;-90
2021/12/19 10:55:35;;;;;;;;;;;13.60;63.40;;;;;;6190768;23;20252;-92
2021/12/19 10:58:01;;;;;;;;;;;13.60;63.30;;;;;;6192234;23;19990;-91
2021/12/19 11:00:27;;;;;;;;;;;13.70;63.40;;;;;;6217649;23;19920;-91
2021/12/19 11:02:53;;;;;;;;;;;13.70;63.40;;;;;;6191664;23;19908;-91
2021/12/19 11:05:38;;;;;;;;;;;13.70;63.30;;;;;;6191161;23;19998;-89
2021/12/19 11:08:05;;;;;;;;;;;13.70;63.10;;;;;;6217505;23;19931;-92
2021/12/19 11:10:31;;;;;;;;;;;13.70;63.30;;;;;;6189640;23;19912;-90
2021/12/19 11:13:14;;;;;;;;;;;13.70;63.30;;;;;;6214830;23;19968;-89
2021/12/19 11:15:41;;;;;;;;;;;13.70;63.30;;;;;;6190057;23;20305;-91
2021/12/19 11:18:07;;;;;;;;;;;13.70;63.30;;;;;;6217142;23;19908;-90
2021/12/19 11:20:33;;;;;;;;;;;13.70;63.30;;;;;;6191984;23;19996;-91
2021/12/19 11:22:59;;;;;;;;;;;13.70;63.30;;;;;;6189925;23;19908;-91
2021/12/19 11:25:25;;;;;;;;;;;13.80;63.30;;;;;;6191412;23;19916;-90
2021/12/19 11:27:51;;;;;;;;;;;13.80;63.20;;;;;;6214981;23;19904;-91
2021/12/19 11:30:18;;;;;;;;;;;13.80;63.30;;;;;;6217416;23;20639;-91
2021/12/19 11:32:51;;;;;;;;;;;13.80;63.40;;;;;;6191236;23;19958;-90
2021/12/19 11:35:18;;;;;;;;;;;13.90;63.30;;;;;;6218294;23;19912;-90
2021/12/19 11:37:48;;;;;;;;;;;13.90;63.40;;;;;;6216018;23;19912;-91
2021/12/19 11:40:16;;;;;;;;;;;13.90;63.30;;;;;;6218803;23;19912;-91
2021/12/19 11:42:42;;;;;;;;;;;14.00;63.30;;;;;;6217086;23;19960;-90
2021/12/19 11:45:39;;;;;;;;;;;14.00;63.20;;;;;;6217572;23;19908;-91
2021/12/19 11:48:13;;;;;;;;;;;14.00;63.20;;;;;;6191471;23;19912;-91
2021/12/19 11:50:45;;;;;;;;;;;14.00;63.10;;;;;;6193353;23;19911;-90
2021/12/19 11:53:11;;;;;;;;;;;13.90;63.20;;;;;;6219199;23;19907;-90
2021/12/19 11:55:41;;;;;;;;;;;13.90;63.30;;;;;;6191332;23;20011;-91
2021/12/19 11:58:12;;;;;;;;;;;14.00;63.50;;;;;;6191366;23;20353;-90
2021/12/19 12:00:43;;;;;;;;;;;14.00;63.50;;;;;;6192536;23;19948;-91
2021/12/19 12:03:11;;;;;;;;;;;14.00;63.50;;;;;;6217460;23;20657;-90
2021/12/19 12:05:37;;;;;;;;;;;14.10;63.50;;;;;;6190787;23;19907;-89
2021/12/19 12:08:06;;;;;;;;;;;14.20;63.50;;;;;;6217033;23;19960;-90
2021/12/19 12:10:54;;;;;;;;;;;14.20;63.40;;;;;;6189496;23;19963;-90
2021/12/19 12:13:20;;;;;;;;;;;14.20;63.30;;;;;;6189642;23;20596;-90
2021/12/19 12:15:49;;;;;;;;;;;14.20;63.60;;;;;;6194394;23;19987;-89
2021/12/19 12:18:28;;;;;;;;;;;14.20;63.50;;;;;;6215350;23;19908;-89
2021/12/19 12:20:53;;;;;;;;;;;14.20;63.30;;;;;;6217205;23;19908;-89
2021/12/19 12:23:24;;;;;;;;;;;14.10;63.30;;;;;;6190804;23;19916;-88
2021/12/19 12:25:50;;;;;;;;;;;14.10;63.30;;;;;;6217171;23;19908;-89
2021/12/19 12:28:17;;;;;;;;;;;14.10;63.20;;;;;;6217997;23;20358;-90
2021/12/19 12:30:48;;;;;;;;;;;14.10;63.10;;;;;;6166580;23;19908;-91
2021/12/19 12:33:15;;;;;;;;;;;14.00;63.10;;;;;;6218978;23;19911;-93
2021/12/19 12:35:41;;;;;;;;;;;14.00;62.80;;;;;;6194425;23;19904;-92
2021/12/19 12:38:08;;;;;;;;;;;14.00;63.00;;;;;;6193172;23;20297;-92
2021/12/19 12:41:27;;;;;;;;;;;14.00;63.10;;;;;;6219106;23;19914;-92
2021/12/19 12:43:36;;;;;;;;;;;13.90;62.80;;;;;;6218645;23;19927;-89
2021/12/19 12:46:06;;;;;;;;;;;13.80;63.10;;;;;;6190913;23;19908;-89
2021/12/19 12:48:31;;;;;;;;;;;13.80;63.10;;;;;;6191879;23;19982;-90
2021/12/19 12:50:58;;;;;;;;;;;13.80;62.90;;;;;;6192774;23;19919;-91
2021/12/19 12:53:28;;;;;;;;;;;13.70;62.60;;;;;;6221009;23;19916;-92
2021/12/19 12:56:09;;;;;;;;;;;13.60;62.70;;;;;;6192072;23;20288;-90
2021/12/19 12:58:44;;;;;;;;;;;13.50;63.00;;;;;;6192268;23;19991;-91
2021/12/19 13:01:17;;;;;;;;;;;13.60;63.50;;;;;;6218166;23;19908;-92
2021/12/19 13:03:58;;;;;;;;;;;13.60;63.60;;;;;;6218115;23;20205;-89
2021/12/19 13:06:36;;;;;;;;;;;13.60;63.60;;;;;;6191805;23;19999;-91
2021/12/19 13:09:08;;;;;;;;;;;13.60;63.80;;;;;;6193340;23;19919;-90
2021/12/19 13:11:35;;;;;;;;;;;13.60;63.90;;;;;;6192420;23;19999;-91
2021/12/19 13:14:10;;;;;;;;;;;13.60;63.90;;;;;;6192341;23;19912;-91
2021/12/19 13:16:43;;;;;;;;;;;13.60;63.70;;;;;;6219674;23;19919;-91
2021/12/19 13:19:09;;;;;;;;;;;13.70;63.90;;;;;;6192997;23;20290;-91
2021/12/19 13:21:54;;;;;;;;;;;13.70;64.10;;;;;;6191993;23;19970;-92
2021/12/19 13:24:21;;;;;;;;;;;13.70;64.10;;;;;;6218291;23;19908;-91
2021/12/19 13:26:47;;;;;;;;;;;13.80;64.10;;;;;;6192690;23;19916;-91
2021/12/19 13:29:19;;;;;;;;;;;13.80;64.10;;;;;;6192489;23;19904;-92
2021/12/19 13:31:44;;;;;;;;;;;13.80;64.00;;;;;;6216676;23;19912;-92
2021/12/19 13:34:13;;;;;;;;;;;13.80;64.10;;;;;;6218901;23;19982;-91
2021/12/19 13:36:39;;;;;;;;;;;13.80;64.10;;;;;;6193258;23;19919;-91
2021/12/19 13:39:15;;;;;;;;;;;13.80;64.20;;;;;;6219154;23;19904;-90
2021/12/19 13:41:41;;;;;;;;;;;13.80;64.20;;;;;;6193089;23;19923;-90
2021/12/19 13:44:08;;;;;;;;;;;13.80;64.20;;;;;;6191905;23;20240;-90
2021/12/19 13:46:34;;;;;;;;;;;13.80;64.10;;;;;;6192196;23;19912;-90
2021/12/19 13:48:59;;;;;;;;;;;13.80;64.10;;;;;;6192626;23;20236;-91
2021/12/19 13:51:26;;;;;;;;;;;13.80;64.00;;;;;;6192416;23;20012;-90
2021/12/19 13:53:54;;;;;;;;;;;13.80;64.10;;;;;;6217322;23;19934;-91
2021/12/19 13:56:22;;;;;;;;;;;13.80;64.10;;;;;;6168083;23;19971;-92
2021/12/19 13:58:55;;;;;;;;;;;13.80;64.20;;;;;;6192941;23;19908;-91
2021/12/19 14:01:22;;;;;;;;;;;13.80;64.20;;;;;;6219740;23;19971;-91
2021/12/19 14:03:50;;;;;;;;;;;13.80;64.40;;;;;;6193453;23;19918;-91
2021/12/19 14:06:21;;;;;;;;;;;13.80;64.20;;;;;;6193500;23;19911;-93
2021/12/19 14:08:54;;;;;;;;;;;13.80;64.30;;;;;;6194231;23;19904;-92
2021/12/19 14:11:20;;;;;;;;;;;13.80;64.20;;;;;;6195128;23;19919;-92
2021/12/19 14:13:57;;;;;;;;;;;13.80;64.20;;;;;;6220398;23;19943;-92
2021/12/19 14:16:27;;;;;;;;;;;13.80;64.10;;;;;;6219065;23;19970;-92
2021/12/19 14:18:52;;;;;;;;;;;13.80;64.10;;;;;;6219394;23;19927;-91
2021/12/19 14:21:31;;;;;;;;;;;13.80;64.10;;;;;;6217830;23;19970;-91
2021/12/19 14:24:11;;;;;;;;;;;13.80;64.00;;;;;;6192855;23;19927;-91
2021/12/19 14:26:37;;;;;;;;;;;13.80;64.00;;;;;;6194249;23;19912;-91
2021/12/19 14:29:03;;;;;;;;;;;13.80;64.00;;;;;;6193359;23;20220;-92
2021/12/19 14:31:45;;;;;;;;;;;13.80;64.00;;;;;;6218458;23;20261;-90
2021/12/19 14:34:20;;;;;;;;;;;13.80;64.00;;;;;;6221303;23;19991;-95
2021/12/19 14:36:46;;;;;;;;;;;13.80;63.90;;;;;;6192954;23;20232;-91
2021/12/19 14:39:15;;;;;;;;;;;13.80;63.90;;;;;;6191117;23;19904;-93
2021/12/19 14:41:41;;;;;;;;;;;13.80;64.00;;;;;;6191257;23;19915;-90
2021/12/19 14:44:17;;;;;;;;;;;13.80;63.90;;;;;;6216945;23;19908;-90
2021/12/19 14:46:42;;;;;;;;;;;13.80;63.90;;;;;;6218466;23;19912;-90
2021/12/19 14:49:10;;;;;;;;;;;13.80;63.70;;;;;;6190920;23;20248;-90
2021/12/19 14:51:36;;;;;;;;;;;13.80;63.60;;;;;;6216895;23;20233;-90
2021/12/19 14:54:02;;;;;;;;;;;13.70;63.60;;;;;;6217775;23;19920;-90
2021/12/19 14:56:29;;;;;;;;;;;13.70;63.10;;;;;;6189692;23;19918;-90
2021/12/19 14:58:58;;;;;;;;;;;13.60;63.10;;;;;;6216802;23;20335;-89
2021/12/19 15:01:25;;;;;;;;;;;13.60;63.50;;;;;;6189900;23;20248;-90
2021/12/19 15:03:58;;;;;;;;;;;13.50;63.50;;;;;;6191416;23;20399;-90
2021/12/19 15:06:25;;;;;;;;;;;13.50;63.70;;;;;;6192052;23;19904;-91
2021/12/19 15:08:51;;;;;;;;;;;13.50;63.70;;;;;;6192542;23;20241;-91
2021/12/19 15:11:17;;;;;;;;;;;13.50;63.60;;;;;;6191293;23;19974;-91
2021/12/19 15:13:42;;;;;;;;;;;13.40;63.60;;;;;;6218538;23;20305;-91
2021/12/19 15:16:08;;;;;;;;;;;13.40;63.60;;;;;;6219116;23;19904;-91
2021/12/19 15:18:35;;;;;;;;;;;13.40;63.80;;;;;;6219357;23;20396;-90
2021/12/19 15:21:01;;;;;;;;;;;13.40;63.90;;;;;;6218117;23;19904;-91
2021/12/19 15:23:26;;;;;;;;;;;13.30;63.90;;;;;;6218630;23;20209;-91
2021/12/19 15:25:52;;;;;;;;;;;13.30;63.90;;;;;;6218933;23;19959;-90
2021/12/19 15:28:19;;;;;;;;;;;13.30;64.00;;;;;;6219116;23;19912;-90